Huvudsida
METAR-TAF:

METAR-TAF

Flygplatser :

King Hussein International Airport

Akaba, Jordanien

latitud: 29-38N, longitud: 035-01E, höjd: 53 m

Aktuellt väderrapport

Denna rapport gjordes för 1 timme och 17 minuter sedan, klockan 22:00 UTC
Vind 9 kt från nord/nordväst
Temperatur 23°C
Fuktighet 61%
Tryck 1014 hPa
Sikt: 8000 m

METAR: OJAQ 152200Z 33009KT 8000 NSC 23/15 Q1014 NOSIG

Tid: 01:17 (23:17 UTC)

Väderprognos

Denna rapport gjordes för 6 timmar och 17 minuter sedan, klockan 17:00 UTC
Prognos gäller från 15 kl. 18 UTC till 16 kl. 24 UTC
Vind 12 kt från nord
Sikt: 8000 m
Få moln på en höjd av 4000 ft
Sannolikhet 30% :
Temporärt
från 15 kl. 18 UTC till 16 kl. 06 UTC
Vind 20 kt från nord
Sikt: 5000 m
Få moln på en höjd av 3000 ft, Högtornande cumulus.
Brutna moln på en höjd av 3500 ft
lätt regn, högt damm drev

TAF: OJAQ 151700Z 1518/1624 35012KT 8000 FEW040 PROB30 TEMPO 1518/1606 36020KT 5000 -RA BLDU FEW030TCU BKN035

Aktuella väderrapporter och prognoser från 4000 flygplatser (METAR- och TAF-rapporter).

De tillgängliga stationerna syns som gula och röda prickar på kartan.

För musen över prickarna för att se namnen på stationerna.

Klicka sedan för att få väderrapporter och prognoser.

För att ändra kartan: Klicka på de gröna knapparna med ett svart kors på för att zooma in; den gröna knappen med ett streck på för att zooma ut; eller på de gröna pilarna för angränsande kartor.


METAR-TAF: